Time;durP1;ratioP1;P1;durP2;ratioP2;P2;SDS_P1;SDS_P2;PMS_P1;PMS_P2;Temp;Humidity;BMP_temperature;BMP_pressure;BME280_temperature;BME280_humidity;BME280_pressure;Samples;Min_cycle;Max_cycle;Signal;HPM_P1;HPM_P2
2022/12/10 00:00:09;;;;;;;60.00;33.50;;;1.70;99.90;;;;;;5097026;28;20230;-71
2022/12/10 00:02:36;;;;;;;60.10;33.10;;;1.70;99.90;;;;;;5091361;28;20753;-72
2022/12/10 00:05:05;;;;;;;55.87;32.73;;;1.70;99.90;;;;;;5097366;28;20643;-71
2022/12/10 00:07:32;;;;;;;62.53;33.63;;;1.70;99.90;;;;;;5079364;28;20204;-74
2022/12/10 00:09:59;;;;;;;56.80;31.87;;;1.70;99.90;;;;;;5091213;28;20212;-71
2022/12/10 00:12:26;;;;;;;56.87;33.93;;;1.70;99.90;;;;;;5094264;28;20211;-74
2022/12/10 00:14:53;;;;;;;54.33;31.63;;;1.70;99.90;;;;;;5097762;28;20299;-70
2022/12/10 00:17:19;;;;;;;58.10;32.33;;;1.60;99.90;;;;;;5091628;28;20204;-72
2022/12/10 00:19:46;;;;;;;54.73;32.40;;;1.60;99.90;;;;;;5096891;28;20222;-71
2022/12/10 00:22:15;;;;;;;60.37;33.03;;;1.60;99.90;;;;;;5093733;28;20700;-71
2022/12/10 00:24:42;;;;;;;56.13;32.83;;;1.60;99.90;;;;;;5078748;28;20485;-70
2022/12/10 00:27:09;;;;;;;59.97;32.47;;;1.60;99.90;;;;;;5086272;28;20257;-70
2022/12/10 00:29:36;;;;;;;52.97;31.20;;;1.60;99.90;;;;;;5092649;28;20326;-70
2022/12/10 00:32:05;;;;;;;56.10;31.77;;;1.60;99.90;;;;;;5087683;28;20292;-68
2022/12/10 00:34:32;;;;;;;57.13;32.63;;;1.50;99.90;;;;;;5090378;28;20212;-69
2022/12/10 00:36:59;;;;;;;53.67;30.87;;;1.60;99.90;;;;;;5091081;28;20202;-68
2022/12/10 00:39:27;;;;;;;58.07;32.03;;;1.60;99.90;;;;;;5090368;28;20224;-67
2022/12/10 00:41:54;;;;;;;61.30;33.43;;;1.60;99.90;;;;;;5090866;28;20244;-70
2022/12/10 00:44:21;;;;;;;57.87;31.63;;;1.60;99.90;;;;;;5087635;28;20227;-69
2022/12/10 00:46:48;;;;;;;57.90;31.07;;;1.60;99.90;;;;;;5095173;28;20678;-67
2022/12/10 00:49:15;;;;;;;52.50;30.80;;;1.60;99.90;;;;;;5092932;28;20304;-69
2022/12/10 00:51:42;;;;;;;60.53;31.97;;;1.60;99.90;;;;;;5085364;28;20665;-68
2022/12/10 00:54:09;;;;;;;55.70;30.93;;;1.50;99.90;;;;;;5087265;28;20223;-69
2022/12/10 00:56:37;;;;;;;57.30;31.60;;;1.50;99.90;;;;;;5081959;28;20204;-70
2022/12/10 00:59:04;;;;;;;59.47;32.07;;;1.50;99.90;;;;;;5103174;28;20303;-70
2022/12/10 01:01:33;;;;;;;54.60;31.37;;;1.50;99.90;;;;;;5095140;28;20212;-69
2022/12/10 01:04:02;;;;;;;54.00;30.90;;;1.50;99.90;;;;;;5096158;28;20216;-68
2022/12/10 01:06:31;;;;;;;59.67;32.00;;;1.50;99.90;;;;;;5084230;28;20209;-68
2022/12/10 01:09:00;;;;;;;58.30;31.47;;;1.50;99.90;;;;;;5076927;28;20668;-68
2022/12/10 01:11:30;;;;;;;55.30;31.10;;;1.50;99.90;;;;;;5086940;28;20714;-67
2022/12/10 01:13:59;;;;;;;61.00;32.27;;;1.50;99.90;;;;;;5097504;28;20612;-70
2022/12/10 01:16:27;;;;;;;55.70;31.37;;;1.50;99.90;;;;;;5090441;28;20637;-67
2022/12/10 01:18:55;;;;;;;58.93;32.87;;;1.50;99.90;;;;;;5095197;28;20204;-67
2022/12/10 01:21:22;;;;;;;56.87;30.80;;;1.50;99.90;;;;;;5079735;28;20212;-67
2022/12/10 01:23:51;;;;;;;56.83;31.43;;;1.50;99.90;;;;;;5078886;28;20225;-66
2022/12/10 01:26:20;;;;;;;57.67;32.20;;;1.50;99.90;;;;;;5097574;28;20236;-68
2022/12/10 01:28:47;;;;;;;60.17;33.00;;;1.60;99.90;;;;;;5092774;28;20211;-68
2022/12/10 01:31:18;;;;;;;57.80;31.50;;;1.50;99.90;;;;;;5088994;28;20363;-68
2022/12/10 01:33:45;;;;;;;56.30;31.87;;;1.50;99.90;;;;;;5083313;28;20228;-71
2022/12/10 01:36:14;;;;;;;58.57;32.27;;;1.50;99.90;;;;;;5107797;28;20777;-69
2022/12/10 01:38:41;;;;;;;57.43;30.73;;;1.50;99.90;;;;;;5094772;28;20351;-69
2022/12/10 01:41:13;;;;;;;56.53;30.67;;;1.50;99.90;;;;;;5089416;28;20208;-71
2022/12/10 01:43:52;;;;;;;52.27;30.03;;;1.50;99.90;;;;;;5088778;28;20223;-71
2022/12/10 01:46:21;;;;;;;58.50;31.03;;;1.50;99.90;;;;;;5094192;28;20207;-68
2022/12/10 01:48:49;;;;;;;58.87;30.97;;;1.60;99.90;;;;;;5087417;28;20990;-69
2022/12/10 01:51:16;;;;;;;61.43;30.77;;;1.50;99.90;;;;;;5093585;28;20217;-68
2022/12/10 01:53:45;;;;;;;58.93;31.70;;;1.50;99.90;;;;;;5075728;28;20302;-69
2022/12/10 01:56:13;;;;;;;58.83;31.33;;;1.50;99.90;;;;;;5089526;28;20673;-70
2022/12/10 01:58:40;;;;;;;52.57;29.53;;;1.50;99.90;;;;;;5094021;28;20647;-71
2022/12/10 02:01:12;;;;;;;59.73;31.53;;;1.50;99.90;;;;;;5087456;28;20261;-69
2022/12/10 02:03:53;;;;;;;60.43;32.13;;;1.50;99.90;;;;;;5093698;28;20674;-71
2022/12/10 02:06:33;;;;;;;50.90;28.83;;;1.50;99.90;;;;;;5097223;28;20562;-72
2022/12/10 02:09:10;;;;;;;55.80;30.20;;;1.50;99.90;;;;;;5087846;28;20596;-72
2022/12/10 02:11:44;;;;;;;57.33;30.90;;;1.50;99.90;;;;;;5089401;28;20661;-70
2022/12/10 02:14:16;;;;;;;56.40;30.33;;;1.50;99.90;;;;;;5088824;28;20303;-71
2022/12/10 02:16:49;;;;;;;55.43;30.50;;;1.50;99.90;;;;;;5090610;28;20303;-71
2022/12/10 02:19:26;;;;;;;48.77;29.03;;;1.60;99.90;;;;;;5090767;28;20720;-71
2022/12/10 02:21:55;;;;;;;54.50;28.43;;;1.60;99.90;;;;;;5091257;28;20656;-70
2022/12/10 02:24:28;;;;;;;52.60;28.10;;;1.60;99.90;;;;;;5096352;28;20683;-71
2022/12/10 02:27:02;;;;;;;53.43;29.57;;;1.60;99.90;;;;;;5099991;28;20192;-72
2022/12/10 02:29:32;;;;;;;51.13;28.67;;;1.60;99.90;;;;;;5072586;28;20697;-69
2022/12/10 02:32:05;;;;;;;55.87;29.20;;;1.60;99.90;;;;;;5078316;28;20308;-71
2022/12/10 02:34:35;;;;;;;48.83;28.47;;;1.60;99.90;;;;;;5083490;28;20188;-71
2022/12/10 02:37:05;;;;;;;51.87;27.70;;;1.60;99.90;;;;;;5092272;28;20294;-72
2022/12/10 02:39:37;;;;;;;51.63;28.23;;;1.60;99.90;;;;;;5095864;28;20247;-70
2022/12/10 02:42:06;;;;;;;48.33;26.77;;;1.60;99.90;;;;;;5092362;28;20280;-72
2022/12/10 02:44:37;;;;;;;48.87;27.07;;;1.60;99.90;;;;;;5087964;28;20225;-69
2022/12/10 02:47:06;;;;;;;50.20;26.80;;;1.60;99.90;;;;;;5090933;28;20266;-70
2022/12/10 02:49:34;;;;;;;47.40;27.00;;;1.60;99.90;;;;;;5097297;28;20231;-70
2022/12/10 02:52:07;;;;;;;48.13;26.57;;;1.60;99.90;;;;;;5091237;28;20207;-72
2022/12/10 02:54:38;;;;;;;45.73;25.43;;;1.60;99.90;;;;;;5079592;28;20232;-70
2022/12/10 02:57:24;;;;;;;43.07;23.97;;;1.60;99.90;;;;;;5077446;28;20750;-70
2022/12/10 03:00:03;;;;;;;41.27;23.80;;;1.60;99.90;;;;;;5087364;28;20327;-70
2022/12/10 03:02:40;;;;;;;41.23;22.03;;;1.50;99.90;;;;;;5097421;28;20199;-70
2022/12/10 03:05:15;;;;;;;40.70;22.73;;;1.50;99.90;;;;;;5099545;28;20290;-70
2022/12/10 03:07:48;;;;;;;45.47;23.17;;;1.20;99.90;;;;;;5091590;28;20199;-71
2022/12/10 03:10:23;;;;;;;40.50;22.60;;;1.50;99.90;;;;;;5089654;28;20206;-71
2022/12/10 03:12:54;;;;;;;44.30;23.50;;;1.40;99.90;;;;;;5092773;28;20197;-70
2022/12/10 03:15:24;;;;;;;43.10;23.83;;;1.50;99.90;;;;;;5095939;28;20505;-69
2022/12/10 03:17:52;;;;;;;44.57;23.90;;;1.50;99.90;;;;;;5090200;28;20205;-70
2022/12/10 03:20:19;;;;;;;45.23;24.47;;;1.50;99.90;;;;;;5091776;28;20215;-69
2022/12/10 03:22:49;;;;;;;43.87;24.60;;;1.50;99.90;;;;;;5079198;28;20263;-69
2022/12/10 03:25:21;;;;;;;46.97;26.63;;;1.50;99.90;;;;;;5082754;28;20205;-69
2022/12/10 03:27:52;;;;;;;44.33;24.73;;;1.50;99.90;;;;;;5076060;28;20212;-70
2022/12/10 03:30:19;;;;;;;45.40;24.53;;;1.60;99.90;;;;;;5095778;28;20204;-70
2022/12/10 03:32:47;;;;;;;43.50;23.40;;;1.50;99.90;;;;;;5087911;28;20327;-69
2022/12/10 03:35:16;;;;;;;38.17;21.77;;;1.50;99.90;;;;;;5101717;28;20204;-69
2022/12/10 03:37:44;;;;;;;39.67;21.93;;;1.50;99.90;;;;;;5085843;28;20548;-68
2022/12/10 03:40:13;;;;;;;36.53;21.10;;;1.50;99.90;;;;;;5091187;28;20215;-71
2022/12/10 03:42:40;;;;;;;38.70;21.43;;;1.50;99.90;;;;;;5090623;28;20241;-71
2022/12/10 03:45:08;;;;;;;40.97;22.10;;;1.40;99.90;;;;;;5089997;28;20215;-69
2022/12/10 03:47:35;;;;;;;37.87;21.27;;;1.40;99.90;;;;;;5089395;28;20592;-70
2022/12/10 03:50:04;;;;;;;41.07;22.20;;;1.40;99.90;;;;;;5093944;28;20242;-71
2022/12/10 03:52:31;;;;;;;45.23;22.33;;;1.40;99.90;;;;;;5081859;28;20209;-72
2022/12/10 03:54:58;;;;;;;38.90;21.83;;;1.40;99.90;;;;;;5087983;28;20209;-71
2022/12/10 03:57:25;;;;;;;43.83;23.80;;;1.40;99.90;;;;;;5089334;28;20663;-71
2022/12/10 03:59:52;;;;;;;41.90;22.83;;;1.40;99.90;;;;;;5089282;28;20945;-73
2022/12/10 04:02:18;;;;;;;41.13;23.70;;;1.40;99.90;;;;;;5090789;28;20307;-70
2022/12/10 04:04:45;;;;;;;41.43;22.73;;;1.40;99.90;;;;;;5088881;28;20238;-69
2022/12/10 04:07:14;;;;;;;46.00;23.80;;;1.40;99.90;;;;;;5089796;28;20211;-69
2022/12/10 04:09:41;;;;;;;43.20;23.70;;;1.40;99.90;;;;;;5084742;28;20258;-69
2022/12/10 04:12:08;;;;;;;39.37;21.00;;;1.40;99.90;;;;;;5091083;28;20307;-71
2022/12/10 04:17:20;;;;;;;40.43;21.73;;;1.50;99.90;;;;;;5097018;28;20192;-71
2022/12/10 04:19:47;;;;;;;41.90;23.97;;;1.50;99.90;;;;;;5089056;28;20211;-69
2022/12/10 04:27:49;;;;;;;41.40;23.47;;;1.40;99.90;;;;;;5079006;28;20189;-71
2022/12/10 04:30:16;;;;;;;46.23;23.20;;;1.40;99.90;;;;;;5086246;28;20327;-70
2022/12/10 04:32:43;;;;;;;38.73;22.97;;;1.50;99.90;;;;;;5085679;28;20566;-72
2022/12/10 04:35:10;;;;;;;45.07;24.43;;;1.40;99.90;;;;;;5087327;28;20919;-71
2022/12/10 04:37:38;;;;;;;48.60;24.30;;;1.40;99.90;;;;;;5088977;28;20215;-70
2022/12/10 04:40:06;;;;;;;42.77;22.27;;;1.40;99.90;;;;;;5089598;28;20204;-70
2022/12/10 04:42:34;;;;;;;41.10;23.20;;;1.40;99.90;;;;;;5086562;28;20208;-69
2022/12/10 04:45:01;;;;;;;47.73;23.53;;;1.40;99.90;;;;;;5076838;28;20308;-70
2022/12/10 04:47:28;;;;;;;38.70;21.33;;;1.40;99.90;;;;;;5081948;28;20274;-69
2022/12/10 04:49:54;;;;;;;40.30;21.63;;;1.50;99.90;;;;;;5081249;28;20238;-70
2022/12/10 04:52:21;;;;;;;41.27;21.70;;;1.50;99.90;;;;;;5090974;28;20209;-69
2022/12/10 04:54:50;;;;;;;40.30;21.97;;;1.50;99.90;;;;;;5090524;28;20291;-70
2022/12/10 04:57:17;;;;;;;41.10;21.30;;;1.50;99.90;;;;;;5098021;28;20247;-72
2022/12/10 04:59:44;;;;;;;43.67;21.77;;;1.50;99.90;;;;;;5084715;28;20768;-70
2022/12/10 05:02:11;;;;;;;41.33;22.47;;;1.50;99.90;;;;;;5090444;28;20618;-69
2022/12/10 05:04:38;;;;;;;44.90;22.43;;;1.50;99.90;;;;;;5087984;28;20319;-69
2022/12/10 05:07:04;;;;;;;42.27;22.57;;;1.50;99.90;;;;;;5089127;28;20223;-69
2022/12/10 05:09:31;;;;;;;39.93;21.93;;;1.60;99.90;;;;;;5089208;28;20197;-70
2022/12/10 05:12:00;;;;;;;43.43;21.77;;;1.60;99.90;;;;;;5085893;28;20211;-70
2022/12/10 05:14:26;;;;;;;45.30;23.37;;;1.50;99.90;;;;;;5095275;28;20204;-69
2022/12/10 05:16:53;;;;;;;47.10;21.83;;;1.50;99.90;;;;;;5088358;28;20279;-69
2022/12/10 05:19:21;;;;;;;44.73;22.77;;;1.60;99.90;;;;;;5089740;28;20200;-70
2022/12/10 05:24:33;;;;;;;35.27;17.73;;;1.70;99.90;;;;;;5089997;28;20224;-69
2022/12/10 05:27:01;;;;;;;34.23;17.03;;;1.50;99.90;;;;;;5089470;28;20213;-69
2022/12/10 05:29:28;;;;;;;33.27;17.87;;;1.50;99.90;;;;;;5076168;28;20526;-70
2022/12/10 05:31:55;;;;;;;32.67;17.23;;;1.50;99.90;;;;;;5085872;28;20296;-70
2022/12/10 05:34:22;;;;;;;33.70;17.17;;;1.40;99.90;;;;;;5095153;28;20198;-69
2022/12/10 05:36:49;;;;;;;38.37;19.60;;;1.50;99.90;;;;;;5080783;28;20208;-69
2022/12/10 05:39:15;;;;;;;39.90;20.27;;;1.40;99.90;;;;;;5103907;28;20441;-69
2022/12/10 05:41:45;;;;;;;39.07;19.73;;;1.50;99.90;;;;;;5078974;28;20215;-68
2022/12/10 05:44:13;;;;;;;35.53;17.90;;;1.50;99.90;;;;;;5086046;28;20235;-69
2022/12/10 05:46:40;;;;;;;36.70;18.13;;;1.50;99.90;;;;;;5091587;28;20204;-71
2022/12/10 05:49:08;;;;;;;30.93;16.47;;;1.50;99.90;;;;;;5088330;28;20675;-71
2022/12/10 05:51:37;;;;;;;28.37;16.13;;;1.40;99.90;;;;;;5097906;28;20240;-69
2022/12/10 05:54:05;;;;;;;30.97;16.13;;;1.40;99.90;;;;;;5087682;28;20223;-71
2022/12/10 05:56:33;;;;;;;29.40;15.63;;;1.40;99.90;;;;;;5089449;28;20258;-71
2022/12/10 05:59:02;;;;;;;36.85;21.63;;;1.40;99.90;;;;;;5083191;28;20452;-71
2022/12/10 06:01:31;;;;;;;31.97;17.50;;;1.40;99.90;;;;;;5084266;28;20293;-70
2022/12/10 06:03:59;;;;;;;34.27;16.57;;;1.40;99.90;;;;;;5089339;28;20228;-72
2022/12/10 06:06:28;;;;;;;33.53;18.20;;;1.40;99.90;;;;;;5083391;28;20231;-72
2022/12/10 06:08:56;;;;;;;34.42;18.25;;;1.40;99.90;;;;;;5087854;28;20832;-67
2022/12/10 06:11:23;;;;;;;40.47;24.07;;;1.50;99.90;;;;;;5084551;28;20551;-67
2022/12/10 06:13:50;;;;;;;41.60;20.70;;;1.50;99.90;;;;;;5089897;28;20280;-68
2022/12/10 06:16:17;;;;;;;41.33;25.20;;;1.50;99.90;;;;;;5074154;28;20991;-67
2022/12/10 06:18:45;;;;;;;36.60;19.80;;;1.50;99.90;;;;;;5082690;28;20228;-66
2022/12/10 06:21:14;;;;;;;36.83;20.00;;;1.50;99.90;;;;;;5083226;28;20575;-67
2022/12/10 06:23:42;;;;;;;41.47;24.02;;;1.50;99.90;;;;;;5083909;28;21109;-68
2022/12/10 06:26:11;;;;;;;39.17;19.63;;;1.50;99.90;;;;;;5083822;28;20204;-67
2022/12/10 06:28:38;;;;;;;36.87;18.87;;;1.50;99.90;;;;;;5089753;28;20197;-66
2022/12/10 06:31:06;;;;;;;32.60;17.90;;;1.50;99.90;;;;;;5084095;28;20230;-69
2022/12/10 06:33:33;;;;;;;34.03;17.83;;;1.50;99.90;;;;;;5082431;28;20627;-66
2022/12/10 06:36:03;;;;;;;30.17;17.60;;;1.50;99.90;;;;;;5086549;28;20201;-66
2022/12/10 06:38:30;;;;;;;32.37;17.27;;;1.50;99.90;;;;;;5085063;28;20205;-65
2022/12/10 06:40:57;;;;;;;35.70;17.50;;;1.50;99.90;;;;;;5085312;28;20321;-68
2022/12/10 06:43:23;;;;;;;35.27;17.97;;;1.50;99.90;;;;;;5086061;28;20201;-66
2022/12/10 06:45:50;;;;;;;37.13;17.67;;;1.50;99.90;;;;;;5087386;28;20296;-67
2022/12/10 06:48:17;;;;;;;35.27;18.83;;;1.50;99.90;;;;;;5091262;28;20233;-66
2022/12/10 06:50:44;;;;;;;31.93;17.40;;;1.50;99.90;;;;;;5090608;28;20295;-68
2022/12/10 06:53:12;;;;;;;34.57;17.10;;;1.50;99.90;;;;;;5091619;28;20303;-67
2022/12/10 06:55:39;;;;;;;32.90;17.13;;;1.40;99.90;;;;;;5090418;28;20645;-74
2022/12/10 06:58:06;;;;;;;33.50;17.17;;;1.40;99.90;;;;;;5090187;28;20593;-69
2022/12/10 07:00:33;;;;;;;32.33;16.43;;;1.40;99.90;;;;;;5085045;28;20374;-69
2022/12/10 07:03:00;;;;;;;40.37;17.50;;;1.40;99.90;;;;;;5100289;28;20208;-69
2022/12/10 07:05:27;;;;;;;37.43;17.83;;;1.40;99.90;;;;;;5088521;28;20324;-67
2022/12/10 07:07:54;;;;;;;38.07;16.93;;;1.30;99.90;;;;;;5086098;28;20212;-67
2022/12/10 07:10:22;;;;;;;33.87;17.63;;;1.40;99.90;;;;;;5088691;28;20295;-65
2022/12/10 07:12:49;;;;;;;36.07;17.47;;;1.40;99.90;;;;;;5095271;28;20295;-64
2022/12/10 07:15:16;;;;;;;39.97;16.67;;;1.30;99.90;;;;;;5085231;28;20641;-67
2022/12/10 07:17:43;;;;;;;37.27;17.77;;;1.40;99.90;;;;;;5084140;28;20286;-64
2022/12/10 07:20:11;;;;;;;35.83;17.27;;;1.40;99.90;;;;;;5087549;28;20214;-64
2022/12/10 07:22:38;;;;;;;38.87;17.17;;;1.40;99.90;;;;;;5083554;28;20339;-68
2022/12/10 07:25:06;;;;;;;37.97;17.03;;;1.40;99.90;;;;;;5088071;28;20591;-70
2022/12/10 07:27:34;;;;;;;37.23;17.00;;;1.50;99.90;;;;;;5091537;28;20313;-66
2022/12/10 07:30:01;;;;;;;32.23;17.33;;;1.50;99.90;;;;;;5089474;28;20288;-70
2022/12/10 07:32:28;;;;;;;37.27;17.67;;;1.50;99.90;;;;;;5080514;28;20213;-70
2022/12/10 07:34:55;;;;;;;38.20;17.03;;;1.50;99.90;;;;;;5081567;28;20197;-69
2022/12/10 07:37:22;;;;;;;36.63;17.50;;;1.50;99.90;;;;;;5084819;28;20597;-69
2022/12/10 07:39:49;;;;;;;33.20;17.23;;;1.50;99.90;;;;;;5081126;28;20733;-69
2022/12/10 07:42:16;;;;;;;42.53;21.35;;;1.50;99.90;;;;;;5078044;28;20576;-70
2022/12/10 07:44:44;;;;;;;45.53;23.23;;;1.50;99.90;;;;;;5084679;28;20474;-69
2022/12/10 07:47:11;;;;;;;38.40;18.90;;;1.50;99.90;;;;;;5074212;28;20612;-70
2022/12/10 07:49:38;;;;;;;41.83;21.88;;;1.50;99.90;;;;;;5078864;28;20462;-69
2022/12/10 07:52:05;;;;;;;37.90;17.77;;;1.50;99.90;;;;;;5080939;28;20214;-71
2022/12/10 07:54:32;;;;;;;38.07;18.40;;;1.60;99.90;;;;;;5085332;28;20203;-72
2022/12/10 07:57:02;;;;;;;37.73;17.27;;;1.60;99.90;;;;;;5086345;28;20216;-73
2022/12/10 07:59:30;;;;;;;36.10;18.03;;;1.60;99.90;;;;;;5084920;28;20232;-75
2022/12/10 08:01:59;;;;;;;36.43;17.50;;;1.60;99.90;;;;;;5081407;28;20205;-69
2022/12/10 08:04:28;;;;;;;39.13;18.60;;;1.60;99.90;;;;;;5081226;28;20228;-72
2022/12/10 08:06:55;;;;;;;35.43;16.97;;;1.60;99.90;;;;;;5084710;28;20299;-72
2022/12/10 08:09:22;;;;;;;36.73;17.17;;;1.60;99.90;;;;;;5086743;28;20672;-70
2022/12/10 08:11:49;;;;;;;35.10;16.43;;;1.70;99.90;;;;;;5086766;28;20204;-73
2022/12/10 08:14:16;;;;;;;35.33;16.77;;;1.70;99.90;;;;;;5087881;28;20204;-74
2022/12/10 08:16:43;;;;;;;36.80;16.77;;;1.70;99.90;;;;;;5088085;28;20653;-72
2022/12/10 08:19:11;;;;;;;34.23;17.00;;;1.70;99.90;;;;;;5078178;28;20571;-73
2022/12/10 08:21:38;;;;;;;33.67;17.00;;;1.70;99.90;;;;;;5087248;28;20299;-72
2022/12/10 08:24:06;;;;;;;31.83;16.33;;;1.70;99.90;;;;;;5085809;28;20213;-70
2022/12/10 08:26:34;;;;;;;31.53;15.30;;;1.70;99.90;;;;;;5075362;28;20230;-69
2022/12/10 08:29:01;;;;;;;32.10;15.23;;;1.80;99.90;;;;;;5094694;28;20221;-76
2022/12/10 08:31:29;;;;;;;33.27;15.00;;;1.80;99.90;;;;;;5090925;28;20254;-70
2022/12/10 08:33:56;;;;;;;34.77;15.40;;;1.80;99.90;;;;;;5078952;28;20205;-70
2022/12/10 08:36:24;;;;;;;27.93;14.67;;;1.80;99.90;;;;;;5093671;28;20211;-72
2022/12/10 08:38:51;;;;;;;29.77;13.97;;;1.80;99.90;;;;;;5088937;28;20209;-76
2022/12/10 08:41:20;;;;;;;32.07;15.73;;;1.80;99.90;;;;;;5079627;28;20665;-71
2022/12/10 08:43:48;;;;;;;34.93;15.87;;;1.80;99.90;;;;;;5071076;28;20300;-74
2022/12/10 08:46:15;;;;;;;27.67;14.83;;;1.80;99.90;;;;;;5079752;28;20754;-75
2022/12/10 08:48:42;;;;;;;30.23;14.23;;;1.80;99.90;;;;;;5075806;28;20300;-74
2022/12/10 08:51:12;;;;;;;32.77;15.17;;;1.80;99.90;;;;;;5087585;28;20296;-73
2022/12/10 08:53:40;;;;;;;28.97;13.20;;;1.90;99.90;;;;;;5101663;28;20633;-72
2022/12/10 08:56:08;;;;;;;27.00;13.37;;;1.80;99.90;;;;;;5085105;28;20300;-75
2022/12/10 08:58:35;;;;;;;33.20;14.70;;;1.80;99.90;;;;;;5088616;28;20288;-73
2022/12/10 09:01:07;;;;;;;29.50;14.83;;;1.90;99.90;;;;;;5100503;28;20220;-69
2022/12/10 09:03:34;;;;;;;33.23;14.93;;;1.80;99.90;;;;;;5101748;28;20285;-74
2022/12/10 09:06:03;;;;;;;32.33;15.17;;;1.90;99.90;;;;;;5100040;28;20244;-72
2022/12/10 09:08:30;;;;;;;29.13;14.57;;;2.00;99.90;;;;;;5100391;28;20299;-71
2022/12/10 09:10:59;;;;;;;28.33;15.30;;;2.00;99.90;;;;;;5100415;28;20210;-73
2022/12/10 09:13:26;;;;;;;29.17;14.03;;;2.00;99.90;;;;;;5099869;28;20269;-71
2022/12/10 09:15:54;;;;;;;26.80;12.80;;;2.10;99.90;;;;;;5100678;28;20232;-72
2022/12/10 09:18:21;;;;;;;29.73;13.90;;;2.20;99.90;;;;;;5097382;28;20213;-72
2022/12/10 09:20:48;;;;;;;33.07;15.70;;;2.20;99.90;;;;;;5086152;28;20233;-72
2022/12/10 09:23:14;;;;;;;34.23;14.77;;;2.30;99.90;;;;;;5100163;28;20228;-70
2022/12/10 09:25:41;;;;;;;29.03;14.33;;;2.30;99.90;;;;;;5093288;28;20243;-72
2022/12/10 09:28:10;;;;;;;31.20;14.13;;;2.40;99.90;;;;;;5101898;28;20272;-69
2022/12/10 09:30:37;;;;;;;28.20;14.17;;;2.40;99.90;;;;;;5094121;28;20663;-72
2022/12/10 09:33:04;;;;;;;31.00;14.33;;;2.50;99.90;;;;;;5094712;28;20204;-72
2022/12/10 09:35:31;;;;;;;26.57;13.83;;;2.50;99.90;;;;;;5097754;28;20231;-73
2022/12/10 09:37:58;;;;;;;28.40;14.37;;;2.50;99.90;;;;;;5091582;28;20254;-73
2022/12/10 09:40:32;;;;;;;33.23;14.77;;;2.50;99.90;;;;;;5103783;28;20212;-72
2022/12/10 09:43:06;;;;;;;30.23;14.67;;;2.50;99.90;;;;;;5103649;28;20200;-73
2022/12/10 09:45:44;;;;;;;28.60;13.87;;;2.60;99.90;;;;;;5099574;28;20273;-72
2022/12/10 09:48:21;;;;;;;28.87;13.73;;;2.60;99.90;;;;;;5098182;28;20240;-68
2022/12/10 09:50:56;;;;;;;29.03;14.90;;;2.60;99.90;;;;;;5101035;28;20235;-70
2022/12/10 09:53:24;;;;;;;29.67;13.13;;;2.60;99.90;;;;;;5113642;28;20183;-72
2022/12/10 09:55:52;;;;;;;27.67;13.63;;;2.60;99.90;;;;;;5108764;28;20235;-70
2022/12/10 09:58:22;;;;;;;27.60;13.77;;;2.60;99.90;;;;;;5108656;28;20228;-71
2022/12/10 10:00:56;;;;;;;27.33;14.73;;;2.60;99.90;;;;;;5115707;28;20229;-72
2022/12/10 10:03:23;;;;;;;25.63;13.23;;;2.60;99.90;;;;;;5114107;28;20277;-72
2022/12/10 10:05:53;;;;;;;24.43;14.27;;;2.60;99.90;;;;;;5100246;28;20232;-74
2022/12/10 10:08:28;;;;;;;28.20;14.67;;;2.60;99.90;;;;;;5102462;28;20227;-72
2022/12/10 10:10:55;;;;;;;32.50;14.97;;;2.70;99.90;;;;;;5094200;28;20294;-71
2022/12/10 10:13:31;;;;;;;28.97;13.60;;;2.70;99.90;;;;;;5106049;28;20208;-74
2022/12/10 10:16:12;;;;;;;31.83;13.67;;;2.70;99.90;;;;;;5102435;28;20196;-72
2022/12/10 10:18:44;;;;;;;28.17;13.77;;;2.60;99.90;;;;;;5086353;28;20194;-73
2022/12/10 10:21:18;;;;;;;28.87;14.73;;;2.60;99.90;;;;;;5082432;28;20292;-72
2022/12/10 10:23:46;;;;;;;30.87;14.33;;;2.50;99.90;;;;;;5088881;28;20231;-72
2022/12/10 10:26:13;;;;;;;25.60;13.90;;;2.50;99.90;;;;;;5091235;28;20234;-72
2022/12/10 10:28:42;;;;;;;24.17;12.93;;;2.50;99.90;;;;;;5087276;28;20204;-71
2022/12/10 10:31:19;;;;;;;24.17;14.27;;;2.40;99.90;;;;;;5082742;28;20212;-68
2022/12/10 10:33:56;;;;;;;23.77;12.30;;;2.40;99.90;;;;;;5079157;28;20215;-72
2022/12/10 10:36:25;;;;;;;26.63;13.43;;;2.40;99.90;;;;;;5086694;28;20188;-77
2022/12/10 10:38:52;;;;;;;25.90;14.67;;;2.40;99.90;;;;;;5084350;28;20262;-73
2022/12/10 10:41:19;;;;;;;25.80;13.20;;;2.40;99.90;;;;;;5086194;28;20299;-73
2022/12/10 10:43:48;;;;;;;29.07;14.03;;;2.40;99.90;;;;;;5082623;28;20216;-75
2022/12/10 10:46:18;;;;;;;22.47;12.67;;;2.40;99.90;;;;;;5088310;28;20220;-73
2022/12/10 10:48:45;;;;;;;30.80;13.87;;;2.40;99.90;;;;;;5086835;28;20233;-70
2022/12/10 10:51:20;;;;;;;29.63;14.47;;;2.30;99.90;;;;;;5086724;28;20708;-68
2022/12/10 10:53:49;;;;;;;27.97;14.70;;;2.40;99.90;;;;;;5082071;28;20197;-68
2022/12/10 10:56:20;;;;;;;24.47;12.27;;;2.40;99.90;;;;;;5086089;28;20722;-69
2022/12/10 10:58:53;;;;;;;23.63;13.40;;;2.30;99.90;;;;;;5079237;28;20236;-71
2022/12/10 11:01:22;;;;;;;30.07;14.70;;;2.40;99.90;;;;;;5084771;28;20226;-69
2022/12/10 11:03:54;;;;;;;22.97;13.30;;;2.40;99.90;;;;;;5087895;28;20236;-69
2022/12/10 11:06:21;;;;;;;29.17;14.63;;;2.40;99.90;;;;;;5087398;28;20235;-70
2022/12/10 11:08:49;;;;;;;26.67;13.47;;;2.30;99.90;;;;;;5080947;28;20201;-71
2022/12/10 11:11:21;;;;;;;24.90;13.97;;;2.30;99.90;;;;;;5081580;28;20649;-70
2022/12/10 11:13:48;;;;;;;26.23;12.77;;;2.30;99.90;;;;;;5081121;28;20295;-69
2022/12/10 11:16:22;;;;;;;26.40;14.43;;;2.30;99.90;;;;;;5085692;28;20201;-76
2022/12/10 11:19:02;;;;;;;29.67;13.80;;;2.30;99.90;;;;;;5095024;28;20657;-70
2022/12/10 11:21:30;;;;;;;28.80;14.13;;;2.30;99.90;;;;;;5081525;28;20204;-71
2022/12/10 11:23:58;;;;;;;25.30;14.07;;;2.30;99.90;;;;;;5098212;28;20203;-71
2022/12/10 11:26:57;;;;;;;26.10;14.57;;;2.30;99.90;;;;;;5097982;28;20224;-68
2022/12/10 11:29:43;;;;;;;26.87;13.30;;;2.30;99.90;;;;;;5086442;28;20300;-66
2022/12/10 11:32:26;;;;;;;29.10;13.50;;;2.30;99.90;;;;;;5085758;28;20299;-71
2022/12/10 11:35:03;;;;;;;26.17;13.53;;;2.30;99.90;;;;;;5086837;28;20461;-69
2022/12/10 11:37:35;;;;;;;27.20;14.40;;;2.30;99.90;;;;;;5105552;28;20238;-68
2022/12/10 11:40:22;;;;;;;33.60;14.03;;;2.30;99.90;;;;;;5101572;28;20826;-69
2022/12/10 11:43:01;;;;;;;34.33;16.40;;;2.30;99.90;;;;;;5104054;28;20292;-70
2022/12/10 11:45:42;;;;;;;39.47;15.73;;;2.30;99.90;;;;;;5109538;28;20215;-68
2022/12/10 11:48:22;;;;;;;38.43;15.57;;;2.30;99.90;;;;;;5101097;28;20260;-69
2022/12/10 11:50:52;;;;;;;34.03;15.80;;;2.30;99.90;;;;;;5088841;28;20657;-69
2022/12/10 11:53:51;;;;;;;36.57;16.20;;;2.30;99.90;;;;;;5100298;28;20196;-69
2022/12/10 11:56:25;;;;;;;35.40;15.67;;;2.30;99.90;;;;;;5077812;28;20223;-70
2022/12/10 11:59:05;;;;;;;35.27;15.47;;;2.30;99.90;;;;;;5086578;28;20204;-71
2022/12/10 12:01:53;;;;;;;36.30;15.40;;;2.20;99.90;;;;;;5088342;28;20220;-68
2022/12/10 12:04:27;;;;;;;32.90;14.87;;;2.20;99.90;;;;;;5094863;28;20739;-69
2022/12/10 12:07:19;;;;;;;34.73;15.23;;;2.20;99.90;;;;;;5089572;28;20641;-71
2022/12/10 12:09:59;;;;;;;32.50;13.53;;;2.30;99.90;;;;;;5089405;28;20204;-70
2022/12/10 12:12:37;;;;;;;31.60;14.50;;;2.20;99.90;;;;;;5078351;28;20224;-69
2022/12/10 12:15:14;;;;;;;34.70;15.63;;;2.30;99.90;;;;;;5085435;28;20539;-70
2022/12/10 12:17:44;;;;;;;32.40;15.93;;;2.20;99.90;;;;;;5089710;28;20401;-70
2022/12/10 12:20:18;;;;;;;35.17;15.90;;;2.20;99.90;;;;;;5080385;28;20210;-71
2022/12/10 12:22:51;;;;;;;35.47;15.57;;;2.20;99.90;;;;;;5078866;28;20290;-69
2022/12/10 12:25:24;;;;;;;31.40;14.87;;;2.30;99.90;;;;;;5083654;28;20648;-69
2022/12/10 12:27:56;;;;;;;34.63;15.50;;;2.20;99.90;;;;;;5087420;28;20197;-68
2022/12/10 12:30:24;;;;;;;32.47;15.17;;;2.20;99.90;;;;;;5093035;28;20318;-71
2022/12/10 12:32:56;;;;;;;28.33;13.10;;;2.20;99.90;;;;;;5089423;28;20914;-70
2022/12/10 12:35:34;;;;;;;29.53;13.63;;;2.10;99.90;;;;;;5099949;28;20203;-74
2022/12/10 12:38:11;;;;;;;33.93;13.97;;;2.10;99.90;;;;;;5086318;28;20797;-72
2022/12/10 12:40:44;;;;;;;25.60;12.87;;;2.10;99.90;;;;;;5092615;28;20289;-71
2022/12/10 12:43:17;;;;;;;31.90;13.67;;;2.10;99.90;;;;;;5074812;28;20582;-70
2022/12/10 12:45:46;;;;;;;32.00;14.63;;;2.10;99.90;;;;;;5082624;28;20219;-71
2022/12/10 12:48:23;;;;;;;35.53;15.07;;;2.10;99.90;;;;;;5088734;28;20242;-74
2022/12/10 12:50:56;;;;;;;27.57;13.97;;;2.10;99.90;;;;;;5090451;28;20295;-72
2022/12/10 12:53:25;;;;;;;30.77;14.07;;;2.10;99.90;;;;;;5090308;28;20657;-72
2022/12/10 12:55:59;;;;;;;32.63;14.00;;;2.10;99.90;;;;;;5081749;28;20211;-70
2022/12/10 12:58:34;;;;;;;28.97;14.03;;;2.10;99.90;;;;;;5082033;28;20288;-70